Flight Track Log - Related Links

Times and Time Zones

All times are in EDT time to prevent confusion due to time zone crossing. See the SKW5631 flight status page for this flight to view local times or setup timezone preferences in your user account.

Time Position Orientation Groundspeed Altitude Reporting Facility
EDT Latitude Longitude Course Direction KTS MPH feet Rate Location/Type
Wed 10:29:13 PM 37.6253 -122.3819 143° Southeast 137 158 27,000  Level Oakland Center
Wed 10:30:14 PM 37.6481 -122.4358 298° West 181 208 3,300 -10,033 Descending Oakland Center
Wed 10:31:15 PM 37.6728 -122.5044 294° West 206 237 6,600 2,634 Climbing Oakland Center
Wed 10:32:17 PM 37.6175 -122.5361 204° Southwest 257 296 8,700 2,293 Climbing Oakland Center
Wed 10:33:18 PM 37.5500 -122.4683 141° Southeast 306 352 11,300 2,361 Climbing Oakland Center
Wed 10:34:00 PM 36.9796 -121.5842 143° Southeast  Level Estimated
Wed 10:34:19 PM 37.4817 -122.3950 140° Southeast 319 367 13,500  Level Oakland Center
Wed 10:35:20 PM 37.4061 -122.3131 139° Southeast 347 399 15,200 1,122 Climbing Oakland Center
Wed 10:36:22 PM 37.3208 -122.2194 139° Southeast 393 452 15,800 1,024 Climbing Oakland Center
Wed 10:37:23 PM 37.2322 -122.1222 139° Southeast 417 480 17,300 1,525 Climbing Oakland Center
Wed 10:38:24 PM 37.1250 -122.0042 139° Southeast 426 490 18,900 1,328 Climbing Oakland Center
Wed 10:39:25 PM 37.0328 -121.9036 139° Southeast 435 501 20,000 1,122 Climbing Oakland Center
Wed 10:40:27 PM 36.9386 -121.8047 140° Southeast 444 511 21,200 1,073 Climbing Oakland Center
Wed 10:41:28 PM 36.8453 -121.7067 140° Southeast 441 507 22,200 984 Climbing Oakland Center
Wed 10:42:29 PM 36.7567 -121.6114 139° Southeast 444 511 23,200 976 Climbing Oakland Center
Wed 10:43:31 PM 36.6631 -121.5097 139° Southeast 446 513 24,200 976 Climbing Oakland Center
Wed 10:44:32 PM 36.5697 -121.4086 139° Southeast 446 513 25,200 1,082 Climbing Oakland Center
Wed 10:45:33 PM 36.4578 -121.2875 139° Southeast 447 514 26,400 885 Climbing Oakland Center
Wed 10:46:34 PM 36.3650 -121.1864 139° Southeast 445 512 27,000 293 Climbing Oakland Center
Wed 10:47:36 PM 36.2658 -121.0847 140° Southeast 459 528 27,000  Level Oakland Center
Wed 10:48:37 PM 36.1628 -120.9769 140° Southeast 477 549 27,000  Level Oakland Center
Wed 10:49:38 PM 36.0608 -120.8667 139° Southeast 486 559 27,000  Level Oakland Center
Wed 10:50:39 PM 35.9556 -120.7564 140° Southeast 492 566 27,000  Level Oakland Center
Wed 10:51:41 PM 35.8514 -120.6469 140° Southeast 493 567 27,000  Level Oakland Center
Wed 10:52:42 PM 35.7464 -120.5389 140° Southeast 492 566 27,000  Level Oakland Center
Wed 10:53:43 PM 35.6417 -120.4292 140° Southeast 493 567 27,000  Level Oakland Center
Wed 10:54:44 PM 35.5364 -120.3192 140° Southeast 491 565 27,000 -537 Level Oakland Center
Wed 10:55:46 PM 35.4278 -120.2083 140° Southeast 493 567 25,900 -1,171 Descending Oakland Center
Wed 10:56:47 PM 35.3197 -120.0967 140° Southeast 494 568 24,600 -1,525 Descending Oakland Center
Wed 10:57:48 PM 35.2144 -119.9903 140° Southeast 489 563 22,800 -1,869 Descending Oakland Center
Wed 10:58:49 PM 35.1103 -119.8831 140° Southeast 488 562 20,800 -2,164 Descending Oakland Center
Wed 10:59:50 PM 35.0061 -119.7492 134° Southeast 466 536 18,400 -2,242 Descending Oakland Center
Wed 11:00:20 PM 34.9742 -119.7039 131° Southeast 451 519 17,400 -1,912 Descending Los Angeles Center
Wed 11:01:21 PM 34.8936 -119.5964 132° Southeast 436 502 15,500 -1,659 Descending Los Angeles Center
Wed 11:02:23 PM 34.8153 -119.4914 132° Southeast 425 489 14,000 -1,355 Descending Los Angeles Center
Wed 11:03:25 PM 34.7375 -119.3878 132° Southeast 419 482 12,700 -1,355 Descending Los Angeles Center
Wed 11:04:27 PM 34.6472 -119.2642 132° Southeast 409 471 11,200 -823 Descending Los Angeles Center
Wed 11:05:29 PM 34.5656 -119.1592 133° Southeast 414 476 11,000 -98 Descending Los Angeles Center
Wed 11:06:30 PM 34.4950 -119.0661 133° Southeast 365 420 11,000 -244 Level Los Angeles Center
Wed 11:07:32 PM 34.4319 -118.9817 132° Southeast 337 388 10,500 -1,065 Descending Los Angeles Center
Wed 11:08:34 PM 34.3761 -118.8972 129° Southeast 321 369 8,800 -1,645 Descending Los Angeles Center
Wed 11:09:36 PM 34.3272 -118.8156 126° Southeast 300 345 7,100 -1,742 Descending Los Angeles Center
Wed 11:10:38 PM 34.2817 -118.7464 129° Southeast 268 308 5,200 -1,161 Descending Los Angeles Center
Wed 11:11:40 PM 34.2442 -118.6836 126° Southeast 249 287 4,700 -585 Descending Los Angeles Center
Wed 11:12:41 PM 34.2069 -118.6217 126° Southeast 199 229 4,000 -385 Descending Los Angeles Center
Wed 11:13:29 PM 34.2000 -118.5667 99° East 185 213 4,000 -500 Level Southern California TRACON
Wed 11:14:29 PM 34.2000 -118.5167 90° East 173 199 3,100 -850 Descending Southern California TRACON
Wed 11:15:29 PM 34.2000 -118.4667 90° East 150 173 2,300 -800 Descending Southern California TRACON
Wed 11:16:29 PM 34.2000 -118.4167 90° East 141 162 1,500 -553 Descending Southern California TRACON
Wed 11:17:50 PM 34.1986 -118.3600 92° East 148 170 1,000 -370 Descending Los Angeles Center

Login

Don't have an account? Register now (free) for customized features, flight alerts, and more!